Aktualne dane pomiarowe

Uwaga, wersja testowa! Automatyczne pobieranie danych za pomocą narzędzi lub skryptów to umożliwiających jest zabronione.

Dane meteo z obszaru Polski uzyskane na podstawie depesz SYNOP pobieranych co godzinę z NWS. Najedź myszką na symbol przedstawiony w tabeli, aby uzyskać informacje co do jego znaczenia. Prosimy pamiętać, że to testowa wersja strony, która jeszcze nie jest ukończona. Stworzono również jest krótki FAQ dotyczący korzystania z tej podstrony Anomalie temperatury w chwili obecnej odniesione są do okresu referencyjnego 1951-2016. Okres ten będzie później zmieniony na 1981-2010. Kliknij ikonę aby pobrać plik CSV. Kliknij ikonę aby wygenerować mapę synoptyczną dla danego terminu.

Wybierz Datę:    

        

Lesko (12690)

Dane terminowe dla wybranej stacji. Kliknij datę, aby otrzymać dane z tego terminu dla wszystkich stacji.

TemperaturaZachmurzenieWiatrCiśnienieOpadyPogoda
 Data t td wb tx tn tg rh  Nt Nl Cl Cm Ch ws wd g1 g2 wx mslp ppp ch 24h 12h t ww ww w1 w2  
2019-06-22 23:00:00 17.4 16.4 16.7--- 940.9wxwxwx1wx--11018.8 969.5 -0.3---wx---
2019-06-22 22:00:00 18.0 17.0 17.3--- 9418.0wxwxwx3wx--31018.8 969.6 -0.4---wx---
2019-06-22 21:00:00 17.8 17.0 17.2--- 9511.0wxwxwx1wx--11018.7 969.5 -0.3---wx---
2019-06-22 20:00:00 17.4 16.6 16.8--- 952.6wxwxwx1wx--11019.1 969.8 -0.3---wx---
2019-06-22 19:00:00 17.6 16.6 16.9--- 9411.0wxwxwx1wx--11019.3 970.0 -0.4---------
2019-06-22 18:00:00 18.2 16.9 17.3 22.8 17.4- 9223.0wxwxwxwxwx1wx--11019.0 969.8 -0.3- 4.012wx-w1--
2019-06-22 17:00:00 18.3 16.8 17.2--- 9117.0wxwxwx2wx--21019.3 970.1 0.0---wx-w1w2--
2019-06-22 16:00:00 18.7 16.8 17.3--- 8926.0wxwxwx2wx--21019.5 970.4 0.2---wx---
2019-06-22 15:00:00 20.3 18.4 18.9--- 8930.0wxwxwxwx2wx--21018.9 970.1 0.0---wx-w1--
2019-06-22 14:00:00 19.3 17.6 18.1--- 9035.0wxwxwx2wx--21019.1 970.1 -0.6---wx-w1w2--
2019-06-22 13:00:00 20.2 16.4 17.6--- 7915.0wxwxwx3wx--31019.1 970.2 -0.9---wx---
2019-06-22 12:00:00 22.5 17.4 19.0--- 7335.0wxwxwxwx1wx--11018.6 970.1 -0.8- 0.06------
2019-06-22 11:00:00 22.3 17.4 18.9--- 7435.0wxwxwx2wx---1019.2 970.7 -0.1---------
2019-06-22 10:00:00 21.8 17.4 18.8--- 7635.0wxwxwx2wx--21019.7 971.1 0.4---------
2019-06-22 09:00:00 21.0 17.4 18.5--- 8030.0wxwxwx2wx--21019.7 970.9 0.3---------
2019-06-22 08:00:00 20.2 17.4 18.2--- 8422.0wxwxwx2wx--21019.7 970.8 0.5---------
2019-06-22 07:00:00 18.8 17.8 18.1--- 9416.0wxwxwx1wx--11019.8 970.7 0.5---------
2019-06-22 06:00:00 17.4 16.9 17.0 19.6 15.8 15 976.0wxwxwx1wx--11020.0 970.6 0.7 18.0-12wx-- 5.3
2019-06-22 05:00:00 17.0 16.7 16.8--- 983.0wxwxwx1wx--11019.7 970.3 1.0---wx---
2019-06-22 04:00:00 16.3 16.0 16.1--- 982.0wxwxwxwx1wx--11019.7 970.2 0.9---wx---
2019-06-22 03:00:00 16.2 15.9 16.0--- 982.5wxwxwx0---01019.4 969.9 1.1---wx---
2019-06-22 02:00:00 16.3 16.0 16.1--- 983.0wxwxwxwx1wx--11018.8 969.3 0.9---wx---
2019-06-22 01:00:00 16.1 15.8 15.9--- 983.0wxwxwxwx2wx--21018.8 969.3 1.7---wx---
2019-06-22 00:00:00 15.8 15.3 15.4--- 973.0wxwxwxwx1wx--11018.3 968.8 1.0--6wx-w1--
2019-06-21 23:00:00 15.8 15.2 15.3--- 964.0wxwxwxwx1wx--11017.9 968.4 0.2---wx---
2019-06-21 22:00:00 16.7 15.9 16.1--- 9520.0wxwxwxwx2wx--21016.9 967.6 -0.3---wx---
2019-06-21 21:00:00 16.5 15.5 15.8--- 9415.0wxwxwxwx2wx--21017.2 967.8 1.0---------
2019-06-21 20:00:00 17.2 15.7 16.1--- 9120.0wxwxwx2wx--21017.5 968.2 1.2---------
2019-06-21 19:00:00 18.5 17.5 17.8--- 943.5wxwxwx4wx--41016.9 967.9 1.8---wx---
2019-06-21 18:00:00 19.6 18.1 18.5 25.0 17.0- 9126.0wxwxwxwxwx2wx--21015.6 966.8 0.4- 18.012wx-w1w2--
2019-06-21 17:00:00 20.5 18.1 18.8--- 8635.0wxwxwxwxwx1wx---1015.6 967.0 0.4---------
2019-06-21 16:00:00 20.3 18.4 18.9--- 8926.0wxwxwxwxwx1wx--11014.7 966.1 -0.5---------
2019-06-21 15:00:00 19.9 18.0 18.5--- 8925.0wxwxwxwxwx1wx---1015.1 966.4 -1.3---wx-w1w2--
2019-06-21 14:00:00 19.1 17.9 18.2--- 9329.0wxwxwxwx1wx--11015.5 966.6 -1.0---wx-w1--
2019-06-21 13:00:00 18.2 17.2 17.5--- 9411.0wxwxwx1wx--11015.6 966.6 0.1---wx---
2019-06-21 12:00:00 17.4 16.6 16.8--- 9517.0wxwxwx1wx-911016.9 967.7 0.9- 17.06wx-w1--
2019-06-21 11:00:00 18.3 15.7 16.5--- 8510.0wxwxwx4wx---1016.6 967.6 0.8---wx-w1w2--
2019-06-21 10:00:00 24.5 16.7 19.3--- 6235.0wxwxwxwxwx2wx---1014.4 966.5 -0.3---wx---
2019-06-21 09:00:00 23.5 17.3 19.3--- 6835.0wxwxwxwxwx2wx--21014.9 966.8 0.2---------
2019-06-21 08:00:00 22.7 17.8 19.3--- 7430.0wxwxwxwxwx1wx--11015.1 966.8 0.8---------
2019-06-21 07:00:00 21.7 18.5 19.4--- 8230.0wxwxwxwxwx1wx--11015.2 966.8 1.0---------
2019-06-21 06:00:00 20.6 18.5 19.1 24.3 16.5 16 8835.0wxwxwxwx1wx--11015.2 966.6 1.1- 0.012----- 10.2
2019-06-21 05:00:00 18.9 17.9 18.2--- 9422.0wxwxwxwx1wx--11014.9 966.0 0.8---------
2019-06-21 04:00:00 18.1 17.5 17.7--- 9622.0wxwxwxwx1wx--11014.8 965.8 1.0---wx---
2019-06-21 03:00:00 16.6 16.0 16.1--- 968.0wxwxwxwx1wx--11014.7 965.5 0.8---wx---
2019-06-21 02:00:00 17.0 16.4 16.5--- 966.0wxwxwxwx1wx--11014.3 965.2 0.7---wx---
2019-06-21 01:00:00 17.2 16.6 16.7--- 967.0wxwxwxwx2wx--21013.9 964.8 0.0---wx---
2019-06-21 00:00:00 17.8 17.0 17.2--- 9512.0wxwxwxwx1wx--11013.7 964.7 -0.1- 0.06------
1.8 ms

 

Print Friendly, PDF & Email